sensor_id;sensor_type;location;lat;lon;timestamp;pressure;altitude;pressure_sealevel;temperature;humidity
54924;BME280;40825;52.270;20.984;2023-05-02T00:01:10;100593.48;;;10.36;49.19
54924;BME280;40825;52.270;20.984;2023-05-02T00:03:35;100591.95;;;10.34;49.78
54924;BME280;40825;52.270;20.984;2023-05-02T00:06:01;100590.95;;;10.33;49.72
54924;BME280;40825;52.270;20.984;2023-05-02T00:08:26;100589.71;;;10.33;49.59
54924;BME280;40825;52.270;20.984;2023-05-02T00:10:52;100588.04;;;10.34;49.84
54924;BME280;40825;52.270;20.984;2023-05-02T00:13:17;100582.48;;;10.32;49.71
54924;BME280;40825;52.270;20.984;2023-05-02T00:15:42;100584.59;;;10.33;49.67
54924;BME280;40825;52.270;20.984;2023-05-02T00:18:08;100579.23;;;10.35;49.77
54924;BME280;40825;52.270;20.984;2023-05-02T00:20:34;100577.54;;;10.37;49.78
54924;BME280;40825;52.270;20.984;2023-05-02T00:23:00;100572.38;;;10.38;49.66
54924;BME280;40825;52.270;20.984;2023-05-02T00:25:25;100573.31;;;10.39;49.79
54924;BME280;40825;52.270;20.984;2023-05-02T00:27:51;100570.11;;;10.41;49.81
54924;BME280;40825;52.270;20.984;2023-05-02T00:30:17;100566.84;;;10.41;49.68
54924;BME280;40825;52.270;20.984;2023-05-02T00:32:43;100567.59;;;10.42;49.87
54924;BME280;40825;52.270;20.984;2023-05-02T00:35:09;100562.84;;;10.43;49.71
54924;BME280;40825;52.270;20.984;2023-05-02T00:37:34;100558.23;;;10.47;49.57
54924;BME280;40825;52.270;20.984;2023-05-02T00:40:00;100558.73;;;10.51;49.54
54924;BME280;40825;52.270;20.984;2023-05-02T00:42:27;100556.05;;;10.53;49.59
54924;BME280;40825;52.270;20.984;2023-05-02T00:44:56;100553.65;;;10.55;49.66
54924;BME280;40825;52.270;20.984;2023-05-02T00:47:21;100551.11;;;10.55;49.59
54924;BME280;40825;52.270;20.984;2023-05-02T00:49:49;100547.78;;;10.55;49.43
54924;BME280;40825;52.270;20.984;2023-05-02T00:52:15;100546.47;;;10.59;49.44
54924;BME280;40825;52.270;20.984;2023-05-02T00:54:40;100545.21;;;10.65;49.31
54924;BME280;40825;52.270;20.984;2023-05-02T00:57:06;100543.09;;;10.69;49.01
54924;BME280;40825;52.270;20.984;2023-05-02T00:59:34;100545.84;;;10.73;48.98
54924;BME280;40825;52.270;20.984;2023-05-02T01:08:03;100535.80;;;10.79;48.61
54924;BME280;40825;52.270;20.984;2023-05-02T01:10:50;100533.40;;;10.80;48.66
54924;BME280;40825;52.270;20.984;2023-05-02T01:13:31;100531.63;;;10.80;48.60
54924;BME280;40825;52.270;20.984;2023-05-02T01:15:58;100532.60;;;10.79;48.64
54924;BME280;40825;52.270;20.984;2023-05-02T01:18:29;100531.85;;;10.78;48.52
54924;BME280;40825;52.270;20.984;2023-05-02T01:21:00;100531.23;;;10.79;48.51
54924;BME280;40825;52.270;20.984;2023-05-02T01:23:40;100531.89;;;10.79;48.59
54924;BME280;40825;52.270;20.984;2023-05-02T01:31:18;100526.29;;;10.72;48.71
54924;BME280;40825;52.270;20.984;2023-05-02T01:33:45;100528.45;;;10.71;48.80
54924;BME280;40825;52.270;20.984;2023-05-02T01:36:13;100524.48;;;10.68;48.93
54924;BME280;40825;52.270;20.984;2023-05-02T01:38:42;100520.47;;;10.66;48.81
54924;BME280;40825;52.270;20.984;2023-05-02T01:41:09;100517.84;;;10.63;49.05
54924;BME280;40825;52.270;20.984;2023-05-02T01:43:36;100517.98;;;10.62;49.01
54924;BME280;40825;52.270;20.984;2023-05-02T01:46:04;100516.13;;;10.59;49.18
54924;BME280;40825;52.270;20.984;2023-05-02T01:48:31;100512.31;;;10.57;49.15
54924;BME280;40825;52.270;20.984;2023-05-02T01:50:58;100510.60;;;10.55;49.14
54924;BME280;40825;52.270;20.984;2023-05-02T01:53:25;100507.10;;;10.53;49.16
54924;BME280;40825;52.270;20.984;2023-05-02T01:55:53;100510.73;;;10.51;49.35
54924;BME280;40825;52.270;20.984;2023-05-02T01:58:20;100504.56;;;10.50;49.36
54924;BME280;40825;52.270;20.984;2023-05-02T02:00:46;100504.14;;;10.50;49.42
54924;BME280;40825;52.270;20.984;2023-05-02T02:03:13;100506.07;;;10.48;49.35
54924;BME280;40825;52.270;20.984;2023-05-02T02:05:40;100504.08;;;10.47;49.57
54924;BME280;40825;52.270;20.984;2023-05-02T02:08:06;100501.89;;;10.46;49.64
54924;BME280;40825;52.270;20.984;2023-05-02T02:10:36;100497.52;;;10.45;49.59
54924;BME280;40825;52.270;20.984;2023-05-02T02:13:24;100498.84;;;10.44;49.70
54924;BME280;40825;52.270;20.984;2023-05-02T02:15:52;100491.59;;;10.43;49.75
54924;BME280;40825;52.270;20.984;2023-05-02T02:18:24;100490.45;;;10.42;49.60
54924;BME280;40825;52.270;20.984;2023-05-02T02:20:53;100489.55;;;10.40;49.96
54924;BME280;40825;52.270;20.984;2023-05-02T02:23:21;100488.52;;;10.40;49.89
54924;BME280;40825;52.270;20.984;2023-05-02T02:25:50;100486.92;;;10.40;49.88
54924;BME280;40825;52.270;20.984;2023-05-02T02:28:16;100485.06;;;10.39;49.91
54924;BME280;40825;52.270;20.984;2023-05-02T02:30:42;100487.00;;;10.37;50.03
54924;BME280;40825;52.270;20.984;2023-05-02T02:33:07;100478.20;;;10.34;49.88
54924;BME280;40825;52.270;20.984;2023-05-02T02:35:42;100480.38;;;10.32;50.09
54924;BME280;40825;52.270;20.984;2023-05-02T02:38:16;100478.39;;;10.30;50.07
54924;BME280;40825;52.270;20.984;2023-05-02T02:40:58;100481.69;;;10.27;50.34
54924;BME280;40825;52.270;20.984;2023-05-02T02:43:35;100487.31;;;10.25;50.65
54924;BME280;40825;52.270;20.984;2023-05-02T02:48:35;100494.19;;;10.23;50.59
54924;BME280;40825;52.270;20.984;2023-05-02T02:56:14;100483.95;;;10.14;50.77
54924;BME280;40825;52.270;20.984;2023-05-02T02:58:47;100481.27;;;10.10;51.25
54924;BME280;40825;52.270;20.984;2023-05-02T03:01:21;100475.77;;;10.04;51.58
54924;BME280;40825;52.270;20.984;2023-05-02T03:03:47;100477.45;;;10.00;51.57
54924;BME280;40825;52.270;20.984;2023-05-02T03:06:16;100474.73;;;9.96;51.88
54924;BME280;40825;52.270;20.984;2023-05-02T03:08:43;100473.00;;;9.93;51.82
54924;BME280;40825;52.270;20.984;2023-05-02T03:11:09;100472.30;;;9.90;51.93
54924;BME280;40825;52.270;20.984;2023-05-02T03:13:35;100473.45;;;9.88;52.18
54924;BME280;40825;52.270;20.984;2023-05-02T03:18:35;100476.67;;;9.85;52.14
54924;BME280;40825;52.270;20.984;2023-05-02T03:21:01;100473.69;;;9.83;52.49
54924;BME280;40825;52.270;20.984;2023-05-02T03:23:27;100474.17;;;9.82;52.29
54924;BME280;40825;52.270;20.984;2023-05-02T03:25:52;100474.06;;;9.83;52.25
54924;BME280;40825;52.270;20.984;2023-05-02T03:28:18;100469.13;;;9.82;52.29
54924;BME280;40825;52.270;20.984;2023-05-02T03:30:43;100472.66;;;9.82;52.30
54924;BME280;40825;52.270;20.984;2023-05-02T03:33:09;100475.73;;;9.82;52.68
54924;BME280;40825;52.270;20.984;2023-05-02T03:35:35;100475.30;;;9.81;52.65
54924;BME280;40825;52.270;20.984;2023-05-02T03:38:01;100474.35;;;9.80;52.44
54924;BME280;40825;52.270;20.984;2023-05-02T03:40:26;100471.05;;;9.81;52.90
54924;BME280;40825;52.270;20.984;2023-05-02T03:42:52;100475.04;;;9.82;53.00
54924;BME280;40825;52.270;20.984;2023-05-02T03:45:17;100475.09;;;9.83;53.02
54924;BME280;40825;52.270;20.984;2023-05-02T03:47:43;100477.98;;;9.82;53.25
54924;BME280;40825;52.270;20.984;2023-05-02T03:50:09;100471.23;;;9.82;53.11
54924;BME280;40825;52.270;20.984;2023-05-02T03:52:34;100474.05;;;9.82;53.15
54924;BME280;40825;52.270;20.984;2023-05-02T03:55:00;100479.31;;;9.83;53.16
54924;BME280;40825;52.270;20.984;2023-05-02T03:57:29;100475.88;;;9.84;53.38
54924;BME280;40825;52.270;20.984;2023-05-02T03:59:54;100475.71;;;9.86;53.27
54924;BME280;40825;52.270;20.984;2023-05-02T04:02:20;100475.09;;;9.88;53.19
54924;BME280;40825;52.270;20.984;2023-05-02T04:04:46;100475.99;;;9.88;53.53
54924;BME280;40825;52.270;20.984;2023-05-02T04:07:13;100480.11;;;9.90;53.36
54924;BME280;40825;52.270;20.984;2023-05-02T04:09:42;100482.05;;;9.95;52.95
54924;BME280;40825;52.270;20.984;2023-05-02T04:12:09;100483.88;;;9.99;53.21
54924;BME280;40825;52.270;20.984;2023-05-02T04:14:35;100483.70;;;10.01;53.23
54924;BME280;40825;52.270;20.984;2023-05-02T04:17:00;100485.57;;;10.07;53.14
54924;BME280;40825;52.270;20.984;2023-05-02T04:19:25;100479.45;;;10.09;53.26
54924;BME280;40825;52.270;20.984;2023-05-02T04:21:51;100481.38;;;10.12;53.43
54924;BME280;40825;52.270;20.984;2023-05-02T04:24:17;100481.02;;;10.16;53.09
54924;BME280;40825;52.270;20.984;2023-05-02T04:26:42;100483.49;;;10.26;53.02
54924;BME280;40825;52.270;20.984;2023-05-02T04:29:07;100483.05;;;10.32;52.88
54924;BME280;40825;52.270;20.984;2023-05-02T04:31:35;100477.03;;;10.38;52.85
54924;BME280;40825;52.270;20.984;2023-05-02T04:34:00;100475.95;;;10.41;52.76
54924;BME280;40825;52.270;20.984;2023-05-02T04:36:26;100476.04;;;10.45;52.93
54924;BME280;40825;52.270;20.984;2023-05-02T04:38:54;100476.34;;;10.53;52.80
54924;BME280;40825;52.270;20.984;2023-05-02T04:41:19;100472.77;;;10.65;52.62
54924;BME280;40825;52.270;20.984;2023-05-02T04:43:45;100474.06;;;10.71;52.38
54924;BME280;40825;52.270;20.984;2023-05-02T04:46:11;100477.39;;;10.79;52.26
54924;BME280;40825;52.270;20.984;2023-05-02T04:48:36;100480.27;;;10.89;52.33
54924;BME280;40825;52.270;20.984;2023-05-02T04:51:07;100477.36;;;10.94;52.18
54924;BME280;40825;52.270;20.984;2023-05-02T04:53:34;100476.09;;;10.94;52.22
54924;BME280;40825;52.270;20.984;2023-05-02T04:55:59;100479.63;;;10.94;52.20
54924;BME280;40825;52.270;20.984;2023-05-02T04:58:25;100477.71;;;10.93;52.19
54924;BME280;40825;52.270;20.984;2023-05-02T05:00:51;100477.63;;;10.92;52.37
54924;BME280;40825;52.270;20.984;2023-05-02T05:03:16;100474.14;;;10.97;52.44
54924;BME280;40825;52.270;20.984;2023-05-02T05:05:41;100475.25;;;11.01;52.27
54924;BME280;40825;52.270;20.984;2023-05-02T05:08:07;100472.25;;;11.02;52.41
54924;BME280;40825;52.270;20.984;2023-05-02T05:10:32;100471.93;;;11.08;52.27
54924;BME280;40825;52.270;20.984;2023-05-02T05:12:58;100472.42;;;11.18;52.32
54924;BME280;40825;52.270;20.984;2023-05-02T05:15:24;100467.13;;;11.29;52.17
54924;BME280;40825;52.270;20.984;2023-05-02T05:17:50;100468.21;;;11.38;51.93
54924;BME280;40825;52.270;20.984;2023-05-02T05:20:16;100468.66;;;11.48;51.94
54924;BME280;40825;52.270;20.984;2023-05-02T05:22:41;100468.54;;;11.62;51.86
54924;BME280;40825;52.270;20.984;2023-05-02T05:25:08;100463.14;;;11.75;51.70
54924;BME280;40825;52.270;20.984;2023-05-02T05:27:34;100464.41;;;11.88;51.33
54924;BME280;40825;52.270;20.984;2023-05-02T05:30:00;100463.08;;;11.93;51.29
54924;BME280;40825;52.270;20.984;2023-05-02T05:32:26;100464.34;;;11.99;51.15
54924;BME280;40825;52.270;20.984;2023-05-02T05:34:52;100459.77;;;12.10;51.12
54924;BME280;40825;52.270;20.984;2023-05-02T05:37:21;100462.09;;;12.28;51.40
54924;BME280;40825;52.270;20.984;2023-05-02T05:39:47;100462.44;;;12.48;50.87
54924;BME280;40825;52.270;20.984;2023-05-02T05:42:12;100459.52;;;12.63;50.46
54924;BME280;40825;52.270;20.984;2023-05-02T05:44:43;100456.92;;;12.74;50.32
54924;BME280;40825;52.270;20.984;2023-05-02T05:47:09;100463.63;;;12.89;50.30
54924;BME280;40825;52.270;20.984;2023-05-02T05:49:35;100461.94;;;13.18;50.47
54924;BME280;40825;52.270;20.984;2023-05-02T05:52:01;100451.40;;;13.57;50.46
54924;BME280;40825;52.270;20.984;2023-05-02T05:54:27;100453.00;;;13.91;49.56
54924;BME280;40825;52.270;20.984;2023-05-02T05:56:53;100456.30;;;14.20;49.24
54924;BME280;40825;52.270;20.984;2023-05-02T05:59:19;100455.52;;;14.45;49.27
54924;BME280;40825;52.270;20.984;2023-05-02T06:01:44;100453.21;;;14.59;48.42
54924;BME280;40825;52.270;20.984;2023-05-02T06:04:10;100451.80;;;14.65;47.96
54924;BME280;40825;52.270;20.984;2023-05-02T06:06:35;100453.99;;;14.77;47.97
54924;BME280;40825;52.270;20.984;2023-05-02T06:09:01;100452.91;;;15.01;48.13
54924;BME280;40825;52.270;20.984;2023-05-02T06:11:27;100452.52;;;15.28;47.49
54924;BME280;40825;52.270;20.984;2023-05-02T06:13:53;100451.71;;;15.55;47.32
54924;BME280;40825;52.270;20.984;2023-05-02T06:16:19;100453.39;;;15.79;46.45
54924;BME280;40825;52.270;20.984;2023-05-02T06:18:49;100457.86;;;15.97;46.08
54924;BME280;40825;52.270;20.984;2023-05-02T06:21:15;100460.67;;;16.15;45.81
54924;BME280;40825;52.270;20.984;2023-05-02T06:23:41;100464.58;;;16.34;45.06
54924;BME280;40825;52.270;20.984;2023-05-02T06:26:06;100461.87;;;16.31;44.98
54924;BME280;40825;52.270;20.984;2023-05-02T06:28:32;100465.63;;;16.27;45.00
54924;BME280;40825;52.270;20.984;2023-05-02T06:30:59;100471.38;;;16.40;45.66
54924;BME280;40825;52.270;20.984;2023-05-02T06:33:26;100468.46;;;16.61;45.84
54924;BME280;40825;52.270;20.984;2023-05-02T06:35:52;100465.25;;;16.85;45.09
54924;BME280;40825;52.270;20.984;2023-05-02T06:38:18;100463.94;;;16.95;45.21
54924;BME280;40825;52.270;20.984;2023-05-02T06:40:44;100467.56;;;17.01;45.58
54924;BME280;40825;52.270;20.984;2023-05-02T06:43:10;100469.55;;;17.10;45.23
54924;BME280;40825;52.270;20.984;2023-05-02T06:45:36;100470.04;;;17.08;44.71
54924;BME280;40825;52.270;20.984;2023-05-02T06:48:01;100472.20;;;17.05;45.23
54924;BME280;40825;52.270;20.984;2023-05-02T06:50:28;100471.96;;;17.14;45.48
54924;BME280;40825;52.270;20.984;2023-05-02T06:52:54;100472.67;;;17.28;45.40
54924;BME280;40825;52.270;20.984;2023-05-02T06:55:20;100468.45;;;17.42;44.74
54924;BME280;40825;52.270;20.984;2023-05-02T06:57:45;100471.26;;;17.57;44.79
54924;BME280;40825;52.270;20.984;2023-05-02T07:00:12;100473.34;;;17.71;44.52
54924;BME280;40825;52.270;20.984;2023-05-02T07:02:37;100470.54;;;17.76;44.37
54924;BME280;40825;52.270;20.984;2023-05-02T07:05:03;100477.01;;;17.80;44.55
54924;BME280;40825;52.270;20.984;2023-05-02T07:07:29;100480.18;;;17.98;44.88
54924;BME280;40825;52.270;20.984;2023-05-02T07:09:54;100482.27;;;18.15;44.64
54924;BME280;40825;52.270;20.984;2023-05-02T07:12:20;100473.20;;;18.27;44.43
54924;BME280;40825;52.270;20.984;2023-05-02T07:14:45;100474.77;;;18.35;44.02
54924;BME280;40825;52.270;20.984;2023-05-02T07:17:11;100472.30;;;18.51;44.07
54924;BME280;40825;52.270;20.984;2023-05-02T07:19:36;100469.22;;;18.76;44.22
54924;BME280;40825;52.270;20.984;2023-05-02T07:22:02;100473.17;;;19.01;43.32
54924;BME280;40825;52.270;20.984;2023-05-02T07:24:28;100467.26;;;19.20;42.88
54924;BME280;40825;52.270;20.984;2023-05-02T07:26:53;100464.77;;;19.47;42.82
54924;BME280;40825;52.270;20.984;2023-05-02T07:29:19;100468.56;;;19.71;42.14
54924;BME280;40825;52.270;20.984;2023-05-02T07:31:44;100469.02;;;19.80;41.59
54924;BME280;40825;52.270;20.984;2023-05-02T07:34:10;100472.48;;;20.00;40.90
54924;BME280;40825;52.270;20.984;2023-05-02T07:36:35;100473.79;;;20.14;40.36
54924;BME280;40825;52.270;20.984;2023-05-02T07:39:01;100473.52;;;20.30;40.40
54924;BME280;40825;52.270;20.984;2023-05-02T07:41:26;100475.18;;;20.49;39.23
54924;BME280;40825;52.270;20.984;2023-05-02T07:43:52;100477.55;;;20.52;38.72
54924;BME280;40825;52.270;20.984;2023-05-02T07:46:17;100474.02;;;20.53;38.49
54924;BME280;40825;52.270;20.984;2023-05-02T07:48:43;100470.34;;;20.70;38.58
54924;BME280;40825;52.270;20.984;2023-05-02T07:51:09;100473.23;;;20.87;38.10
54924;BME280;40825;52.270;20.984;2023-05-02T07:53:35;100470.80;;;20.96;38.13
54924;BME280;40825;52.270;20.984;2023-05-02T07:56:03;100468.05;;;21.13;38.34
54924;BME280;40825;52.270;20.984;2023-05-02T07:58:35;100467.23;;;21.19;37.82
54924;BME280;40825;52.270;20.984;2023-05-02T08:01:02;100471.84;;;21.17;38.00
54924;BME280;40825;52.270;20.984;2023-05-02T08:03:29;100474.98;;;21.18;38.49
54924;BME280;40825;52.270;20.984;2023-05-02T08:05:54;100479.09;;;21.14;38.14
54924;BME280;40825;52.270;20.984;2023-05-02T08:08:20;100485.31;;;21.05;38.22
54924;BME280;40825;52.270;20.984;2023-05-02T08:10:45;100486.98;;;20.97;38.03
54924;BME280;40825;52.270;20.984;2023-05-02T08:13:11;100483.66;;;20.89;38.48
54924;BME280;40825;52.270;20.984;2023-05-02T08:15:37;100486.73;;;20.75;38.28
54924;BME280;40825;52.270;20.984;2023-05-02T08:18:02;100490.61;;;20.83;38.81
54924;BME280;40825;52.270;20.984;2023-05-02T08:20:28;100495.08;;;20.92;38.78
54924;BME280;40825;52.270;20.984;2023-05-02T08:22:53;100496.04;;;21.03;39.24
54924;BME280;40825;52.270;20.984;2023-05-02T08:25:19;100497.34;;;21.16;38.97
54924;BME280;40825;52.270;20.984;2023-05-02T08:27:45;100495.98;;;21.16;38.81
54924;BME280;40825;52.270;20.984;2023-05-02T08:30:11;100498.34;;;21.19;39.19
54924;BME280;40825;52.270;20.984;2023-05-02T08:32:36;100505.69;;;21.28;39.17
54924;BME280;40825;52.270;20.984;2023-05-02T08:35:02;100508.57;;;21.38;39.22
54924;BME280;40825;52.270;20.984;2023-05-02T08:37:27;100507.56;;;21.40;38.73
54924;BME280;40825;52.270;20.984;2023-05-02T08:39:53;100512.48;;;21.52;39.13
54924;BME280;40825;52.270;20.984;2023-05-02T08:42:19;100510.33;;;21.72;39.15
54924;BME280;40825;52.270;20.984;2023-05-02T08:44:49;100512.77;;;21.79;38.30
54924;BME280;40825;52.270;20.984;2023-05-02T08:47:17;100514.05;;;21.74;38.14
54924;BME280;40825;52.270;20.984;2023-05-02T08:49:43;100514.62;;;21.70;38.32
54924;BME280;40825;52.270;20.984;2023-05-02T08:52:11;100520.91;;;21.79;38.22
54924;BME280;40825;52.270;20.984;2023-05-02T08:54:37;100521.38;;;21.95;38.03
54924;BME280;40825;52.270;20.984;2023-05-02T08:57:04;100523.16;;;22.36;38.36
54924;BME280;40825;52.270;20.984;2023-05-02T08:59:30;100523.80;;;22.62;37.65
54924;BME280;40825;52.270;20.984;2023-05-02T09:02:00;100518.77;;;22.77;37.43
54924;BME280;40825;52.270;20.984;2023-05-02T09:04:31;100520.09;;;22.99;37.05
54924;BME280;40825;52.270;20.984;2023-05-02T09:06:59;100517.04;;;23.03;36.88
54924;BME280;40825;52.270;20.984;2023-05-02T09:09:25;100524.05;;;22.91;36.68
54924;BME280;40825;52.270;20.984;2023-05-02T09:11:51;100522.81;;;22.94;37.05
54924;BME280;40825;52.270;20.984;2023-05-02T09:14:17;100521.61;;;23.07;36.79
54924;BME280;40825;52.270;20.984;2023-05-02T09:16:43;100525.16;;;23.24;36.85
54924;BME280;40825;52.270;20.984;2023-05-02T09:19:09;100527.16;;;23.52;36.54
54924;BME280;40825;52.270;20.984;2023-05-02T09:21:38;100527.20;;;23.62;36.47
54924;BME280;40825;52.270;20.984;2023-05-02T09:24:21;100529.11;;;23.54;36.53
54924;BME280;40825;52.270;20.984;2023-05-02T09:29:21;100533.00;;;23.13;36.54
54924;BME280;40825;52.270;20.984;2023-05-02T09:31:47;100537.26;;;22.70;37.21
54924;BME280;40825;52.270;20.984;2023-05-02T09:34:15;100540.78;;;22.33;37.87
54924;BME280;40825;52.270;20.984;2023-05-02T09:36:48;100543.35;;;22.08;38.69
54924;BME280;40825;52.270;20.984;2023-05-02T09:39:26;100546.02;;;21.88;38.99
54924;BME280;40825;52.270;20.984;2023-05-02T09:41:56;100551.95;;;21.65;39.49
54924;BME280;40825;52.270;20.984;2023-05-02T09:44:27;100554.11;;;21.48;39.72
54924;BME280;40825;52.270;20.984;2023-05-02T09:47:00;100553.29;;;21.40;39.71
54924;BME280;40825;52.270;20.984;2023-05-02T09:49:41;100555.90;;;21.40;39.99
54924;BME280;40825;52.270;20.984;2023-05-02T09:52:13;100562.41;;;21.39;40.42
54924;BME280;40825;52.270;20.984;2023-05-02T09:54:39;100570.33;;;21.52;40.22
54924;BME280;40825;52.270;20.984;2023-05-02T09:57:05;100571.83;;;21.56;40.20
54924;BME280;40825;52.270;20.984;2023-05-02T09:59:31;100576.57;;;21.58;40.05
54924;BME280;40825;52.270;20.984;2023-05-02T10:01:59;100575.42;;;21.44;40.36
54924;BME280;40825;52.270;20.984;2023-05-02T10:04:26;100574.55;;;21.17;40.54
54924;BME280;40825;52.270;20.984;2023-05-02T10:06:53;100572.76;;;20.98;41.18
54924;BME280;40825;52.270;20.984;2023-05-02T10:09:19;100576.70;;;20.96;41.74
54924;BME280;40825;52.270;20.984;2023-05-02T10:11:45;100571.36;;;21.11;41.61
54924;BME280;40825;52.270;20.984;2023-05-02T10:14:11;100577.84;;;21.19;41.66
54924;BME280;40825;52.270;20.984;2023-05-02T10:17:13;100586.98;;;21.35;41.88
54924;BME280;40825;52.270;20.984;2023-05-02T10:19:52;100589.02;;;21.33;42.28
54924;BME280;40825;52.270;20.984;2023-05-02T10:22:19;100593.55;;;21.33;42.82
54924;BME280;40825;52.270;20.984;2023-05-02T10:24:48;100591.98;;;21.34;42.34
54924;BME280;40825;52.270;20.984;2023-05-02T10:27:14;100591.95;;;21.20;42.70
54924;BME280;40825;52.270;20.984;2023-05-02T10:29:41;100596.30;;;21.08;43.38
54924;BME280;40825;52.270;20.984;2023-05-02T10:32:07;100602.61;;;21.03;43.93
54924;BME280;40825;52.270;20.984;2023-05-02T10:34:34;100604.89;;;20.99;44.08
54924;BME280;40825;52.270;20.984;2023-05-02T10:36:59;100612.11;;;20.94;44.49
54924;BME280;40825;52.270;20.984;2023-05-02T10:39:27;100618.49;;;20.82;44.33
54924;BME280;40825;52.270;20.984;2023-05-02T10:41:54;100620.77;;;20.55;44.57
54924;BME280;40825;52.270;20.984;2023-05-02T10:44:40;100621.80;;;20.29;45.10
54924;BME280;40825;52.270;20.984;2023-05-02T10:47:22;100625.91;;;20.08;45.56
54924;BME280;40825;52.270;20.984;2023-05-02T10:49:56;100629.90;;;19.89;45.58
54924;BME280;40825;52.270;20.984;2023-05-02T10:52:37;100634.33;;;19.71;45.76
54924;BME280;40825;52.270;20.984;2023-05-02T11:00:25;100657.48;;;18.80;46.80
54924;BME280;40825;52.270;20.984;2023-05-02T11:02:52;100661.64;;;18.56;48.52
54924;BME280;40825;52.270;20.984;2023-05-02T11:05:17;100671.45;;;18.39;49.38
54924;BME280;40825;52.270;20.984;2023-05-02T11:07:43;100674.19;;;18.26;49.18
54924;BME280;40825;52.270;20.984;2023-05-02T11:12:47;100684.27;;;17.81;52.20
54924;BME280;40825;52.270;20.984;2023-05-02T11:18:05;100693.27;;;17.36;53.21
54924;BME280;40825;52.270;20.984;2023-05-02T11:20:35;100700.89;;;17.13;57.15
54924;BME280;40825;52.270;20.984;2023-05-02T11:23:21;100709.93;;;16.97;56.69
54924;BME280;40825;52.270;20.984;2023-05-02T11:25:56;100717.73;;;16.83;58.08
54924;BME280;40825;52.270;20.984;2023-05-02T11:33:59;100733.73;;;16.35;60.72
54924;BME280;40825;52.270;20.984;2023-05-02T11:36:33;100739.70;;;16.24;61.69
54924;BME280;40825;52.270;20.984;2023-05-02T11:39:00;100742.36;;;16.14;62.03
54924;BME280;40825;52.270;20.984;2023-05-02T11:41:42;100741.88;;;16.14;61.26
54924;BME280;40825;52.270;20.984;2023-05-02T11:44:08;100744.95;;;16.22;62.96
54924;BME280;40825;52.270;20.984;2023-05-02T11:46:38;100739.90;;;16.27;61.19
54924;BME280;40825;52.270;20.984;2023-05-02T11:49:05;100743.08;;;16.27;62.43
54924;BME280;40825;52.270;20.984;2023-05-02T11:51:32;100749.16;;;16.33;62.51
54924;BME280;40825;52.270;20.984;2023-05-02T11:53:58;100751.45;;;16.56;61.71
54924;BME280;40825;52.270;20.984;2023-05-02T11:56:24;100753.87;;;16.76;60.80
54924;BME280;40825;52.270;20.984;2023-05-02T11:58:58;100755.70;;;16.83;61.48
54924;BME280;40825;52.270;20.984;2023-05-02T12:01:24;100754.80;;;16.89;61.13
54924;BME280;40825;52.270;20.984;2023-05-02T12:04:01;100754.39;;;16.96;61.42
54924;BME280;40825;52.270;20.984;2023-05-02T12:06:26;100756.28;;;16.94;60.74
54924;BME280;40825;52.270;20.984;2023-05-02T12:09:05;100752.17;;;17.06;62.10
54924;BME280;40825;52.270;20.984;2023-05-02T12:11:32;100756.84;;;17.34;61.96
54924;BME280;40825;52.270;20.984;2023-05-02T12:13:58;100755.55;;;17.64;60.64
54924;BME280;40825;52.270;20.984;2023-05-02T12:16:23;100757.93;;;17.98;60.31
54924;BME280;40825;52.270;20.984;2023-05-02T12:18:49;100758.27;;;18.23;59.16
54924;BME280;40825;52.270;20.984;2023-05-02T12:21:16;100757.98;;;18.45;58.83
54924;BME280;40825;52.270;20.984;2023-05-02T12:23:42;100758.54;;;18.76;58.12
54924;BME280;40825;52.270;20.984;2023-05-02T12:26:27;100758.50;;;19.01;57.33
54924;BME280;40825;52.270;20.984;2023-05-02T12:28:58;100760.54;;;19.24;57.15
54924;BME280;40825;52.270;20.984;2023-05-02T12:31:24;100762.46;;;19.48;56.27
54924;BME280;40825;52.270;20.984;2023-05-02T12:33:50;100770.88;;;19.58;54.43
54924;BME280;40825;52.270;20.984;2023-05-02T12:36:18;100769.05;;;19.42;54.17
54924;BME280;40825;52.270;20.984;2023-05-02T12:38:50;100765.20;;;19.30;54.99
54924;BME280;40825;52.270;20.984;2023-05-02T12:41:16;100766.80;;;19.22;54.62
54924;BME280;40825;52.270;20.984;2023-05-02T12:43:47;100768.39;;;19.13;54.63
54924;BME280;40825;52.270;20.984;2023-05-02T12:46:12;100767.79;;;19.10;54.69
54924;BME280;40825;52.270;20.984;2023-05-02T12:48:38;100772.05;;;19.12;54.17
54924;BME280;40825;52.270;20.984;2023-05-02T12:51:04;100773.23;;;18.94;54.19
54924;BME280;40825;52.270;20.984;2023-05-02T12:53:37;100772.84;;;18.86;54.07
54924;BME280;40825;52.270;20.984;2023-05-02T12:56:04;100772.10;;;18.67;54.52
54924;BME280;40825;52.270;20.984;2023-05-02T12:58:39;100772.52;;;18.60;54.10
54924;BME280;40825;52.270;20.984;2023-05-02T13:01:06;100773.67;;;18.51;52.80
54924;BME280;40825;52.270;20.984;2023-05-02T13:03:32;100772.56;;;18.38;52.20
54924;BME280;40825;52.270;20.984;2023-05-02T13:05:57;100778.70;;;18.34;52.52
54924;BME280;40825;52.270;20.984;2023-05-02T13:08:23;100781.18;;;18.25;52.43
54924;BME280;40825;52.270;20.984;2023-05-02T13:10:48;100788.68;;;18.16;52.55
54924;BME280;40825;52.270;20.984;2023-05-02T13:13:13;100788.13;;;18.11;51.98
54924;BME280;40825;52.270;20.984;2023-05-02T13:15:40;100789.71;;;18.11;51.57
54924;BME280;40825;52.270;20.984;2023-05-02T13:18:05;100792.49;;;18.12;51.81
54924;BME280;40825;52.270;20.984;2023-05-02T13:20:31;100794.58;;;18.16;51.56
54924;BME280;40825;52.270;20.984;2023-05-02T13:22:56;100795.28;;;18.22;51.68